Time;durP1;ratioP1;P1;durP2;ratioP2;P2;SDS_P1;SDS_P2;PMS_P1;PMS_P2;Temp;Humidity;BMP_temperature;BMP_pressure;BME280_temperature;BME280_humidity;BME280_pressure;Samples;Min_cycle;Max_cycle;Signal;HPM_P1;HPM_P2
2023/05/06 00:02:08;;;;;;;;;;;13.20;99.90;;;;;;5021963;28;20346;-80
2023/05/06 00:04:35;;;;;;;;;;;13.20;99.90;;;;;;5021649;28;20392;-80
2023/05/06 00:07:02;;;;;;;;;;;13.20;99.90;;;;;;5041931;28;19927;-80
2023/05/06 00:09:29;;;;;;;;;;;13.20;99.90;;;;;;5027043;28;20329;-80
2023/05/06 00:11:56;;;;;;;;;;;13.20;99.90;;;;;;5037975;28;19928;-80
2023/05/06 00:14:23;;;;;;;;;;;13.20;99.90;;;;;;5021773;28;20406;-80
2023/05/06 00:16:49;;;;;;;;;;;13.10;99.90;;;;;;5026555;28;20288;-80
2023/05/06 00:19:16;;;;;;;;;;;13.20;99.90;;;;;;5018970;28;19921;-80
2023/05/06 00:21:44;;;;;;;;;;;13.10;99.90;;;;;;5031329;28;20408;-79
2023/05/06 00:24:11;;;;;;;;;;;13.10;99.90;;;;;;5027465;28;20357;-79
2023/05/06 00:26:37;;;;;;;;;;;13.10;99.90;;;;;;5030624;28;19967;-79
2023/05/06 00:29:04;;;;;;;;;;;13.10;99.90;;;;;;5016738;28;19929;-79
2023/05/06 00:31:31;;;;;;;;;;;13.10;99.90;;;;;;5016880;28;19965;-79
2023/05/06 00:33:58;;;;;;;;;;;13.10;99.90;;;;;;5021993;28;19956;-79
2023/05/06 00:36:25;;;;;;;;;;;13.10;99.90;;;;;;5020424;28;20032;-78
2023/05/06 00:38:52;;;;;;;;;;;13.10;99.90;;;;;;5019688;28;19925;-78
2023/05/06 00:41:19;;;;;;;;;;;13.10;99.90;;;;;;5019771;28;19930;-78
2023/05/06 00:43:46;;;;;;;;;;;13.10;99.90;;;;;;5048489;28;20213;-79
2023/05/06 00:46:12;;;;;;;;;;;13.10;99.90;;;;;;5033826;28;20061;-79
2023/05/06 00:48:39;;;;;;;;;;;13.20;99.90;;;;;;5009272;28;19924;-79
2023/05/06 00:51:06;;;;;;;;;;;13.20;99.90;;;;;;5033417;28;19931;-79
2023/05/06 00:53:33;;;;;;;;;;;13.20;99.90;;;;;;5019955;28;19951;-79
2023/05/06 00:56:00;;;;;;;;;;;13.20;99.90;;;;;;5030244;28;19932;-79
2023/05/06 00:58:27;;;;;;;;;;;13.30;99.90;;;;;;5036327;28;19921;-78
2023/05/06 01:00:54;;;;;;;;;;;13.30;99.90;;;;;;5031694;28;20016;-79
2023/05/06 01:03:21;;;;;;;;;;;13.30;99.90;;;;;;5020204;28;19929;-79
2023/05/06 01:05:57;;;;;;;;;;;13.30;99.90;;;;;;5017559;28;19925;-79
2023/05/06 01:08:26;;;;;;;;;;;13.40;99.90;;;;;;5004450;28;20430;-79
2023/05/06 01:10:54;;;;;;;;;;;13.40;99.90;;;;;;5018996;28;20016;-79
2023/05/06 01:13:34;;;;;;;;;;;13.40;99.90;;;;;;5021458;28;20486;-79
2023/05/06 01:16:01;;;;;;;;;;;13.40;99.90;;;;;;5027221;28;20420;-79
2023/05/06 01:18:29;;;;;;;;;;;13.40;99.90;;;;;;5025610;28;19928;-79
2023/05/06 01:20:56;;;;;;;;;;;13.40;99.90;;;;;;5036861;28;19990;-79
2023/05/06 01:23:23;;;;;;;;;;;13.40;99.90;;;;;;5020819;28;20448;-79
2023/05/06 01:25:49;;;;;;;;;;;13.50;99.90;;;;;;5017717;28;19968;-79
2023/05/06 01:28:16;;;;;;;;;;;13.50;99.90;;;;;;5033189;28;20341;-79
2023/05/06 01:31:00;;;;;;;;;;;13.50;99.90;;;;;;5034951;28;19971;-79
2023/05/06 01:33:30;;;;;;;;;;;13.50;99.90;;;;;;5018947;28;19927;-80
2023/05/06 01:36:01;;;;;;;;;;;13.50;99.90;;;;;;5022221;28;19931;-80
2023/05/06 01:38:46;;;;;;;;;;;13.60;99.90;;;;;;5029277;28;19921;-80
2023/05/06 01:41:13;;;;;;;;;;;13.60;99.90;;;;;;5044383;28;20392;-80
2023/05/06 01:43:40;;;;;;;;;;;13.60;99.90;;;;;;5051250;28;19921;-80
2023/05/06 01:46:08;;;;;;;;;;;13.60;99.90;;;;;;5037779;28;19927;-79
2023/05/06 01:48:35;;;;;;;;;;;13.60;99.90;;;;;;5032267;28;19931;-80
2023/05/06 01:51:01;;;;;;;;;;;13.70;99.90;;;;;;5044058;28;20058;-79
2023/05/06 01:53:28;;;;;;;;;;;13.70;99.90;;;;;;5021108;28;19943;-79
2023/05/06 01:55:55;;;;;;;;;;;13.70;99.90;;;;;;5024714;28;20027;-80
2023/05/06 01:58:22;;;;;;;;;;;13.70;99.90;;;;;;5025222;28;19963;-79
2023/05/06 02:00:49;;;;;;;;;;;13.70;99.90;;;;;;5017734;28;20026;-78
2023/05/06 02:03:16;;;;;;;;;;;13.70;99.90;;;;;;5031851;28;19935;-80
2023/05/06 02:05:42;;;;;;;;;;;13.60;99.90;;;;;;5041031;28;19928;-79
2023/05/06 02:08:10;;;;;;;;;;;13.60;99.90;;;;;;5031088;28;19977;-80
2023/05/06 02:10:36;;;;;;;;;;;13.50;99.90;;;;;;5021449;28;20459;-80
2023/05/06 02:13:03;;;;;;;;;;;13.40;99.90;;;;;;5005692;28;19925;-79
2023/05/06 02:15:30;;;;;;;;;;;13.40;99.90;;;;;;5022783;28;19940;-80
2023/05/06 02:17:58;;;;;;;;;;;13.30;99.90;;;;;;5021990;28;20051;-80
2023/05/06 02:20:25;;;;;;;;;;;13.20;99.90;;;;;;5005826;28;20450;-80
2023/05/06 02:22:52;;;;;;;;;;;13.20;99.90;;;;;;5026306;28;20339;-81
2023/05/06 02:25:19;;;;;;;;;;;13.10;99.90;;;;;;5018898;28;20357;-80
2023/05/06 02:27:46;;;;;;;;;;;13.10;99.90;;;;;;5021796;28;19925;-80
2023/05/06 02:30:13;;;;;;;;;;;13.00;99.90;;;;;;5021540;28;19921;-79
2023/05/06 02:32:40;;;;;;;;;;;13.00;99.90;;;;;;5038309;28;19975;-80
2023/05/06 02:35:08;;;;;;;;;;;12.90;99.90;;;;;;5026291;28;20135;-80
2023/05/06 02:37:35;;;;;;;;;;;12.80;99.90;;;;;;5022557;28;20008;-79
2023/05/06 02:40:05;;;;;;;;;;;12.70;99.90;;;;;;5021392;28;19925;-80
2023/05/06 02:42:33;;;;;;;;;;;12.70;99.90;;;;;;5023314;28;20004;-79
2023/05/06 02:45:00;;;;;;;;;;;12.60;99.90;;;;;;5047453;28;19963;-79
2023/05/06 02:47:27;;;;;;;;;;;12.60;99.90;;;;;;5029944;28;20447;-79
2023/05/06 02:49:53;;;;;;;;;;;12.50;99.90;;;;;;5021477;28;20520;-79
2023/05/06 02:52:20;;;;;;;;;;;12.50;99.90;;;;;;5018341;28;19932;-79
2023/05/06 02:54:47;;;;;;;;;;;12.40;99.90;;;;;;5018399;28;20016;-79
2023/05/06 02:57:14;;;;;;;;;;;12.40;99.90;;;;;;5025668;28;20232;-79
2023/05/06 02:59:41;;;;;;;;;;;12.40;99.90;;;;;;5004727;28;19921;-79
2023/05/06 03:02:08;;;;;;;;;;;12.30;99.90;;;;;;5023771;28;20309;-79
2023/05/06 03:04:34;;;;;;;;;;;12.40;99.90;;;;;;5043668;28;20257;-79
2023/05/06 03:07:02;;;;;;;;;;;12.30;99.90;;;;;;5022237;28;20020;-79
2023/05/06 03:09:29;;;;;;;;;;;12.20;99.90;;;;;;5022297;28;20000;-79
2023/05/06 03:11:56;;;;;;;;;;;12.10;99.90;;;;;;5021063;28;19999;-79
2023/05/06 03:14:22;;;;;;;;;;;12.10;99.90;;;;;;5019135;28;19930;-79
2023/05/06 03:16:49;;;;;;;;;;;12.10;99.90;;;;;;5023822;28;19956;-78
2023/05/06 03:19:16;;;;;;;;;;;12.10;99.90;;;;;;5022224;28;19924;-78
2023/05/06 03:21:43;;;;;;;;;;;12.00;99.90;;;;;;5021403;28;19929;-78
2023/05/06 03:24:10;;;;;;;;;;;12.00;99.90;;;;;;5037063;28;20268;-79
2023/05/06 03:26:37;;;;;;;;;;;11.90;99.90;;;;;;5035727;28;20095;-79
2023/05/06 03:29:03;;;;;;;;;;;11.90;99.90;;;;;;5011727;28;19997;-79
2023/05/06 03:31:30;;;;;;;;;;;11.80;99.90;;;;;;5023761;28;19921;-79
2023/05/06 03:33:57;;;;;;;;;;;11.80;99.90;;;;;;5025826;28;19928;-79
2023/05/06 03:36:24;;;;;;;;;;;11.80;99.90;;;;;;5021536;28;20396;-79
2023/05/06 03:38:51;;;;;;;;;;;11.80;99.90;;;;;;5022407;28;19927;-79
2023/05/06 03:41:17;;;;;;;;;;;11.70;99.90;;;;;;5014824;28;19927;-78
2023/05/06 03:43:44;;;;;;;;;;;11.70;99.90;;;;;;5022911;28;19921;-79
2023/05/06 03:46:11;;;;;;;;;;;11.70;99.90;;;;;;5024394;28;19933;-79
2023/05/06 03:48:38;;;;;;;;;;;11.70;99.90;;;;;;5019104;28;19928;-79
2023/05/06 03:51:04;;;;;;;;;;;11.70;99.90;;;;;;5022876;28;20018;-78
2023/05/06 03:53:31;;;;;;;;;;;11.70;99.90;;;;;;5051392;28;20001;-78
2023/05/06 03:55:58;;;;;;;;;;;11.80;99.90;;;;;;5020853;28;20047;-79
2023/05/06 03:58:25;;;;;;;;;;;11.80;99.90;;;;;;5022160;28;20443;-79
2023/05/06 04:00:52;;;;;;;;;;;11.80;99.90;;;;;;5021984;28;19921;-79
2023/05/06 04:03:19;;;;;;;;;;;11.90;99.90;;;;;;4999086;28;20462;-79
2023/05/06 04:05:47;;;;;;;;;;;11.90;99.90;;;;;;5018824;28;20028;-79
2023/05/06 04:08:15;;;;;;;;;;;12.00;99.90;;;;;;5005287;28;19925;-78
2023/05/06 04:10:43;;;;;;;;;;;12.00;99.90;;;;;;5009476;28;19927;-79
2023/05/06 04:13:09;;;;;;;;;;;12.00;99.90;;;;;;5027518;28;19925;-79
2023/05/06 04:15:37;;;;;;;;;;;12.00;99.90;;;;;;5028437;28;19928;-79
2023/05/06 04:18:04;;;;;;;;;;;12.00;99.90;;;;;;5042352;28;19932;-78
2023/05/06 04:20:31;;;;;;;;;;;12.00;99.90;;;;;;5040743;28;20364;-79
2023/05/06 04:22:58;;;;;;;;;;;12.00;99.90;;;;;;5027952;28;20400;-79
2023/05/06 04:25:24;;;;;;;;;;;12.00;99.90;;;;;;5024586;28;19921;-79
2023/05/06 04:27:52;;;;;;;;;;;12.10;99.90;;;;;;5007594;28;19964;-79
2023/05/06 04:30:20;;;;;;;;;;;12.10;99.90;;;;;;5025625;28;20408;-79
2023/05/06 04:32:46;;;;;;;;;;;12.10;99.90;;;;;;5025589;28;19928;-79
2023/05/06 04:35:14;;;;;;;;;;;12.10;99.90;;;;;;5045334;28;19925;-79
2023/05/06 04:37:40;;;;;;;;;;;12.10;99.90;;;;;;5052482;28;19920;-78
2023/05/06 04:40:08;;;;;;;;;;;12.10;99.90;;;;;;5027141;28;19920;-79
2023/05/06 04:42:34;;;;;;;;;;;12.10;99.90;;;;;;5023149;28;20726;-79
2023/05/06 04:45:02;;;;;;;;;;;12.20;99.90;;;;;;5035159;28;19978;-78
2023/05/06 04:47:29;;;;;;;;;;;12.20;99.90;;;;;;5039604;28;20044;-79
2023/05/06 04:49:56;;;;;;;;;;;12.30;99.90;;;;;;5045302;28;19932;-79
2023/05/06 04:52:22;;;;;;;;;;;12.30;99.90;;;;;;5016880;28;20404;-79
2023/05/06 04:54:49;;;;;;;;;;;12.30;99.90;;;;;;5024095;28;19928;-79
2023/05/06 04:57:16;;;;;;;;;;;12.30;99.90;;;;;;5025434;28;20000;-79
2023/05/06 04:59:43;;;;;;;;;;;12.30;99.90;;;;;;5028278;28;19951;-78
2023/05/06 05:02:10;;;;;;;;;;;12.40;99.90;;;;;;5018579;28;20012;-79
2023/05/06 05:04:37;;;;;;;;;;;12.40;99.90;;;;;;5030638;28;19947;-79
2023/05/06 05:07:04;;;;;;;;;;;12.40;99.90;;;;;;5031575;28;19922;-79
2023/05/06 05:09:30;;;;;;;;;;;12.50;99.90;;;;;;5000912;28;19931;-79
2023/05/06 05:11:57;;;;;;;;;;;12.50;99.90;;;;;;5025711;28;20012;-79
2023/05/06 05:14:24;;;;;;;;;;;12.60;99.90;;;;;;5028654;28;20051;-79
2023/05/06 05:16:50;;;;;;;;;;;12.70;99.90;;;;;;5021488;28;19928;-79
2023/05/06 05:19:17;;;;;;;;;;;12.70;99.90;;;;;;5019809;28;19925;-78
2023/05/06 05:21:44;;;;;;;;;;;12.80;99.90;;;;;;5016133;28;19922;-79
2023/05/06 05:24:11;;;;;;;;;;;12.90;99.90;;;;;;5018866;28;19925;-77
2023/05/06 05:26:38;;;;;;;;;;;12.90;99.90;;;;;;5020037;28;20064;-79
2023/05/06 05:29:05;;;;;;;;;;;13.00;99.90;;;;;;5025692;28;19968;-79
2023/05/06 05:31:33;;;;;;;;;;;13.00;99.90;;;;;;5037012;28;19929;-79
2023/05/06 05:34:00;;;;;;;;;;;13.10;99.90;;;;;;5038443;28;19921;-79
2023/05/06 05:36:26;;;;;;;;;;;13.20;99.90;;;;;;5024294;28;19921;-79
2023/05/06 05:38:54;;;;;;;;;;;13.30;99.90;;;;;;5029076;28;20444;-79
2023/05/06 05:41:20;;;;;;;;;;;13.40;99.90;;;;;;5017119;28;19929;-79
2023/05/06 05:43:47;;;;;;;;;;;13.40;99.90;;;;;;5012545;28;20469;-78
2023/05/06 05:46:14;;;;;;;;;;;13.50;99.90;;;;;;5023637;28;19925;-80
2023/05/06 05:48:40;;;;;;;;;;;13.60;99.90;;;;;;5007624;28;20556;-79
2023/05/06 05:51:08;;;;;;;;;;;13.70;99.90;;;;;;5014233;28;19925;-78
2023/05/06 05:53:35;;;;;;;;;;;13.70;99.90;;;;;;5013144;28;20643;-79
2023/05/06 05:56:02;;;;;;;;;;;13.80;99.90;;;;;;5012379;28;19936;-80
2023/05/06 05:58:29;;;;;;;;;;;13.90;99.90;;;;;;5009022;28;19925;-78
2023/05/06 06:00:56;;;;;;;;;;;13.90;99.90;;;;;;4991545;28;20736;-78
2023/05/06 06:03:23;;;;;;;;;;;14.00;99.90;;;;;;5013893;28;19925;-78
2023/05/06 06:05:51;;;;;;;;;;;14.00;99.90;;;;;;5010590;28;19925;-78
2023/05/06 06:08:18;;;;;;;;;;;14.10;99.90;;;;;;4997661;28;20377;-79
2023/05/06 06:10:46;;;;;;;;;;;14.20;99.90;;;;;;5030547;28;20380;-79
2023/05/06 06:13:12;;;;;;;;;;;14.30;99.90;;;;;;5012585;28;20746;-80
2023/05/06 06:15:40;;;;;;;;;;;14.40;99.90;;;;;;5011379;28;19932;-80
2023/05/06 06:18:07;;;;;;;;;;;14.50;99.90;;;;;;5014771;28;19929;-80
2023/05/06 06:20:34;;;;;;;;;;;14.60;99.90;;;;;;5014102;28;19933;-80
2023/05/06 06:23:01;;;;;;;;;;;14.80;99.90;;;;;;5013000;28;19935;-81
2023/05/06 06:25:28;;;;;;;;;;;14.90;99.90;;;;;;5011843;28;19925;-80
2023/05/06 06:27:55;;;;;;;;;;;15.10;99.90;;;;;;5011221;28;20430;-80
2023/05/06 06:30:22;;;;;;;;;;;15.20;99.90;;;;;;5014137;28;20713;-81
2023/05/06 06:32:49;;;;;;;;;;;15.30;99.90;;;;;;5013383;28;20133;-80
2023/05/06 06:35:16;;;;;;;;;;;15.40;99.90;;;;;;5012226;28;19921;-81
2023/05/06 06:37:43;;;;;;;;;;;15.40;99.90;;;;;;5011408;28;19925;-81
2023/05/06 06:40:10;;;;;;;;;;;15.50;99.90;;;;;;5013126;28;19925;-81
2023/05/06 06:42:37;;;;;;;;;;;15.50;99.90;;;;;;5012576;28;19972;-81
2023/05/06 06:45:05;;;;;;;;;;;15.60;99.90;;;;;;5012903;28;20740;-80
2023/05/06 06:47:32;;;;;;;;;;;15.50;99.90;;;;;;5012003;28;19921;-80
2023/05/06 06:49:59;;;;;;;;;;;15.60;99.90;;;;;;5010550;28;20354;-80
2023/05/06 06:52:26;;;;;;;;;;;15.70;99.90;;;;;;5010456;28;19964;-80
2023/05/06 06:54:52;;;;;;;;;;;15.80;99.90;;;;;;5011718;28;20064;-80
2023/05/06 06:57:19;;;;;;;;;;;15.80;99.90;;;;;;5009167;28;19968;-80
2023/05/06 06:59:47;;;;;;;;;;;15.80;99.90;;;;;;5012375;28;20553;-81
2023/05/06 07:02:14;;;;;;;;;;;15.90;99.90;;;;;;5001801;28;19929;-80
2023/05/06 07:04:41;;;;;;;;;;;16.00;99.90;;;;;;5020971;28;20455;-80
2023/05/06 07:07:07;;;;;;;;;;;16.10;99.90;;;;;;5008520;28;19971;-80
2023/05/06 07:09:34;;;;;;;;;;;16.10;99.90;;;;;;5013687;28;19925;-80
2023/05/06 07:12:01;;;;;;;;;;;16.20;99.90;;;;;;5012246;28;20141;-80
2023/05/06 07:14:28;;;;;;;;;;;16.30;99.90;;;;;;5017151;28;19921;-82
2023/05/06 07:16:55;;;;;;;;;;;16.30;99.90;;;;;;5010217;28;20403;-79
2023/05/06 07:19:22;;;;;;;;;;;16.40;99.90;;;;;;5013792;28;19925;-78
2023/05/06 07:21:49;;;;;;;;;;;16.40;99.90;;;;;;5043465;28;19925;-80
2023/05/06 07:24:16;;;;;;;;;;;16.50;99.90;;;;;;5011932;28;20034;-79
2023/05/06 07:26:42;;;;;;;;;;;16.50;99.90;;;;;;5016696;28;19925;-79
2023/05/06 07:29:09;;;;;;;;;;;16.60;99.90;;;;;;5007382;28;19929;-79
2023/05/06 07:31:36;;;;;;;;;;;16.70;99.90;;;;;;5013008;28;19925;-79
2023/05/06 07:34:03;;;;;;;;;;;16.90;99.90;;;;;;5016360;28;19925;-79
2023/05/06 07:36:34;;;;;;;;;;;17.00;99.90;;;;;;5007458;28;19972;-79
2023/05/06 07:39:03;;;;;;;;;;;17.10;99.90;;;;;;5014494;28;19955;-79
2023/05/06 07:41:30;;;;;;;;;;;17.30;99.90;;;;;;5012985;28;20059;-80
2023/05/06 07:43:57;;;;;;;;;;;17.30;99.90;;;;;;4996957;28;19925;-79
2023/05/06 07:46:24;;;;;;;;;;;17.40;99.90;;;;;;5013533;28;19922;-79
2023/05/06 07:48:52;;;;;;;;;;;17.50;99.90;;;;;;5015486;28;19935;-80
2023/05/06 07:51:19;;;;;;;;;;;17.60;99.90;;;;;;5014379;28;19990;-79
2023/05/06 07:53:46;;;;;;;;;;;17.70;99.90;;;;;;5015579;28;19926;-82
2023/05/06 07:56:12;;;;;;;;;;;17.70;99.90;;;;;;5018398;28;19932;-82
2023/05/06 07:58:39;;;;;;;;;;;17.70;99.90;;;;;;5017155;28;20188;-82
2023/05/06 08:01:06;;;;;;;;;;;17.80;99.90;;;;;;5014377;28;20525;-81
2023/05/06 08:03:33;;;;;;;;;;;17.80;99.90;;;;;;5024933;28;20372;-80
2023/05/06 08:06:01;;;;;;;;;;;17.80;99.90;;;;;;5014960;28;19933;-80
2023/05/06 08:08:28;;;;;;;;;;;18.00;99.90;;;;;;5017131;28;19979;-81
2023/05/06 08:10:54;;;;;;;;;;;18.00;99.90;;;;;;5016854;28;19932;-80
2023/05/06 08:13:21;;;;;;;;;;;18.00;99.90;;;;;;5017230;28;19921;-81
2023/05/06 08:15:48;;;;;;;;;;;17.90;99.90;;;;;;5016868;28;20002;-80
2023/05/06 08:18:15;;;;;;;;;;;18.00;99.90;;;;;;5019341;28;20223;-81
2023/05/06 08:20:48;;;;;;;;;;;18.00;99.90;;;;;;5015327;28;20819;-80
2023/05/06 08:23:14;;;;;;;;;;;17.90;99.90;;;;;;5015506;28;20021;-80
2023/05/06 08:25:41;;;;;;;;;;;17.90;99.90;;;;;;5016811;28;20512;-80
2023/05/06 08:28:09;;;;;;;;;;;17.80;99.90;;;;;;5019850;28;19925;-80
2023/05/06 08:30:35;;;;;;;;;;;17.80;99.90;;;;;;5014533;28;19988;-80
2023/05/06 08:33:02;;;;;;;;;;;17.80;99.90;;;;;;5014789;28;20443;-79
2023/05/06 08:35:29;;;;;;;;;;;17.80;99.90;;;;;;5017898;28;20007;-80
2023/05/06 08:37:56;;;;;;;;;;;17.80;99.90;;;;;;5016821;28;19971;-79
2023/05/06 08:40:23;;;;;;;;;;;17.70;99.90;;;;;;5032778;28;19925;-80
2023/05/06 08:42:50;;;;;;;;;;;17.70;99.90;;;;;;5014852;28;19935;-78
2023/05/06 08:45:17;;;;;;;;;;;17.80;99.90;;;;;;5013378;28;19937;-80
2023/05/06 08:47:45;;;;;;;;;;;17.90;99.90;;;;;;5014125;28;19929;-81
2023/05/06 08:50:11;;;;;;;;;;;17.90;99.90;;;;;;5015277;28;20075;-80
2023/05/06 08:52:39;;;;;;;;;;;17.80;99.90;;;;;;5018411;28;19925;-81
2023/05/06 08:55:06;;;;;;;;;;;17.70;99.90;;;;;;5032374;28;19978;-79
2023/05/06 08:57:33;;;;;;;;;;;17.60;99.90;;;;;;5016071;28;20562;-80
2023/05/06 09:00:00;;;;;;;;;;;17.50;99.90;;;;;;5017576;28;19950;-80
2023/05/06 09:02:27;;;;;;;;;;;17.30;99.90;;;;;;5026021;28;21271;-79
2023/05/06 09:04:54;;;;;;;;;;;17.30;99.90;;;;;;5014338;28;20756;-79
2023/05/06 09:07:21;;;;;;;;;;;17.40;99.90;;;;;;5016354;28;19937;-80
2023/05/06 09:09:47;;;;;;;;;;;17.50;99.90;;;;;;5018657;28;20388;-81
2023/05/06 09:12:14;;;;;;;;;;;17.60;99.90;;;;;;5010189;28;20385;-79
2023/05/06 09:14:41;;;;;;;;;;;17.80;99.90;;;;;;5016167;28;20025;-79
2023/05/06 09:17:22;;;;;;;;;;;17.80;99.90;;;;;;5012530;28;19925;-80
2023/05/06 09:19:51;;;;;;;;;;;17.80;99.90;;;;;;5027304;28;19925;-80
2023/05/06 09:22:20;;;;;;;;;;;17.70;99.90;;;;;;5014440;28;19925;-80
2023/05/06 09:24:55;;;;;;;;;;;17.70;99.90;;;;;;5012552;28;20009;-79
2023/05/06 09:27:22;;;;;;;;;;;17.60;99.90;;;;;;5012720;28;19925;-80
2023/05/06 09:30:14;;;;;;;;;;;17.40;99.90;;;;;;5015820;28;20240;-80
2023/05/06 09:32:42;;;;;;;;;;;17.40;99.90;;;;;;5008652;28;20369;-78
2023/05/06 09:35:10;;;;;;;;;;;17.40;99.90;;;;;;5011587;28;19931;-79
2023/05/06 09:37:38;;;;;;;;;;;17.30;99.90;;;;;;5030049;28;19925;-79
2023/05/06 09:40:05;;;;;;;;;;;17.30;99.90;;;;;;5020173;28;20023;-79
2023/05/06 09:42:32;;;;;;;;;;;17.30;99.90;;;;;;5023400;28;19925;-79
2023/05/06 09:45:00;;;;;;;;;;;17.30;99.90;;;;;;5015892;28;20048;-79
2023/05/06 09:47:31;;;;;;;;;;;17.30;99.90;;;;;;5015059;28;19965;-80
2023/05/06 09:49:58;;;;;;;;;;;17.30;99.90;;;;;;5010656;28;19931;-79
2023/05/06 09:52:25;;;;;;;;;;;17.20;99.90;;;;;;5015671;28;19929;-79
2023/05/06 09:54:52;;;;;;;;;;;17.10;99.90;;;;;;5019675;28;20463;-79
2023/05/06 09:57:19;;;;;;;;;;;17.10;99.90;;;;;;5011147;28;20442;-80
2023/05/06 09:59:46;;;;;;;;;;;17.20;99.90;;;;;;5019651;28;19922;-78
2023/05/06 10:02:13;;;;;;;;;;;17.20;99.90;;;;;;5016458;28;20361;-78
2023/05/06 10:04:40;;;;;;;;;;;17.20;99.90;;;;;;5021075;28;19925;-79
2023/05/06 10:07:09;;;;;;;;;;;17.20;99.90;;;;;;5016671;28;19930;-79
2023/05/06 10:09:36;;;;;;;;;;;17.20;99.90;;;;;;5019839;28;19936;-78
2023/05/06 10:12:02;;;;;;;;;;;17.20;99.90;;;;;;5012287;28;19921;-78
2023/05/06 10:14:29;;;;;;;;;;;17.10;99.90;;;;;;5014209;28;19921;-79
2023/05/06 10:16:57;;;;;;;;;;;17.10;99.90;;;;;;4997952;28;19929;-78
2023/05/06 10:19:24;;;;;;;;;;;17.10;99.90;;;;;;5014529;28;19921;-78
2023/05/06 10:21:56;;;;;;;;;;;17.00;99.90;;;;;;5014641;28;20059;-77
2023/05/06 10:24:27;;;;;;;;;;;17.00;99.90;;;;;;5013787;28;19929;-77
2023/05/06 10:26:53;;;;;;;;;;;16.90;99.90;;;;;;5012807;28;19921;-79
2023/05/06 10:29:20;;;;;;;;;;;16.80;99.90;;;;;;5011282;28;19936;-80
2023/05/06 10:31:52;;;;;;;;;;;16.80;99.90;;;;;;5026058;28;19939;-80
2023/05/06 10:34:19;;;;;;;;;;;16.70;99.90;;;;;;5015872;28;19925;-79
2023/05/06 10:36:45;;;;;;;;;;;16.60;99.90;;;;;;5013171;28;19939;-79
2023/05/06 10:39:13;;;;;;;;;;;16.70;99.90;;;;;;5013953;28;19925;-79
2023/05/06 10:41:40;;;;;;;;;;;16.70;99.90;;;;;;5015160;28;20012;-80
2023/05/06 10:44:08;;;;;;;;;;;16.70;99.90;;;;;;5015878;28;19928;-79
2023/05/06 10:47:02;;;;;;;;;;;16.70;99.90;;;;;;5030614;28;19944;-80
2023/05/06 10:49:28;;;;;;;;;;;16.70;99.90;;;;;;5014040;28;19932;-80
2023/05/06 10:52:08;;;;;;;;;;;16.80;99.90;;;;;;5014508;28;19929;-80
2023/05/06 10:54:45;;;;;;;;;;;16.80;99.90;;;;;;5045203;28;19928;-79
2023/05/06 10:57:12;;;;;;;;;;;17.00;99.90;;;;;;4996738;28;19935;-80
2023/05/06 10:59:43;;;;;;;;;;;17.00;99.90;;;;;;5022681;28;20052;-80
2023/05/06 11:02:09;;;;;;;;;;;17.10;99.90;;;;;;5011937;28;19947;-83
2023/05/06 11:04:36;;;;;;;;;;;17.10;99.90;;;;;;5014531;28;19988;-82
2023/05/06 11:07:20;;;;;;;;;;;17.10;99.90;;;;;;5014369;28;20606;-82
2023/05/06 11:09:59;;;;;;;;;;;17.20;99.90;;;;;;5029494;28;19947;-81
2023/05/06 11:12:45;;;;;;;;;;;17.20;99.90;;;;;;5014866;28;19931;-82
2023/05/06 11:15:18;;;;;;;;;;;17.20;99.90;;;;;;5015152;28;20265;-82
2023/05/06 11:17:45;;;;;;;;;;;17.10;99.90;;;;;;5018261;28;19929;-82
2023/05/06 11:20:19;;;;;;;;;;;17.10;99.90;;;;;;5025721;28;20047;-82
2023/05/06 11:22:45;;;;;;;;;;;17.10;99.90;;;;;;5024848;28;19928;-83
2023/05/06 11:25:12;;;;;;;;;;;17.10;99.90;;;;;;5032071;28;20000;-82
2023/05/06 11:27:39;;;;;;;;;;;17.20;99.90;;;;;;5023677;28;20382;-83
2023/05/06 11:30:06;;;;;;;;;;;17.10;99.90;;;;;;5018420;28;19925;-81
2023/05/06 11:32:33;;;;;;;;;;;17.10;99.90;;;;;;5022926;28;20059;-83
2023/05/06 11:35:00;;;;;;;;;;;17.00;99.90;;;;;;5021516;28;20384;-83
2023/05/06 11:37:27;;;;;;;;;;;16.90;99.90;;;;;;5030969;28;19944;-82
2023/05/06 11:39:54;;;;;;;;;;;16.90;99.90;;;;;;5000735;28;19927;-83
2023/05/06 11:42:24;;;;;;;;;;;16.90;99.90;;;;;;5016577;28;20295;-82
2023/05/06 11:44:54;;;;;;;;;;;16.90;99.90;;;;;;5026770;28;19920;-81
2023/05/06 11:47:21;;;;;;;;;;;17.00;99.90;;;;;;5018275;28;19925;-81
2023/05/06 11:49:52;;;;;;;;;;;16.90;99.90;;;;;;5002056;28;20074;-78
2023/05/06 11:52:19;;;;;;;;;;;16.90;99.90;;;;;;5018313;28;20043;-82
2023/05/06 11:54:46;;;;;;;;;;;16.90;99.90;;;;;;5017055;28;20451;-82
2023/05/06 11:57:16;;;;;;;;;;;17.00;99.90;;;;;;5026076;28;20270;-81
2023/05/06 11:59:42;;;;;;;;;;;17.00;99.90;;;;;;5030404;28;20559;-81
2023/05/06 12:02:11;;;;;;;;;;;17.20;99.90;;;;;;5016333;28;19948;-81
2023/05/06 12:04:40;;;;;;;;;;;17.30;99.90;;;;;;5028277;28;19925;-82
2023/05/06 12:07:07;;;;;;;;;;;17.40;99.90;;;;;;5024519;28;19925;-80
2023/05/06 12:09:35;;;;;;;;;;;17.40;99.90;;;;;;5017982;28;19983;-81
2023/05/06 12:12:02;;;;;;;;;;;17.20;99.90;;;;;;5019371;28;20020;-82
2023/05/06 12:14:29;;;;;;;;;;;17.20;99.90;;;;;;5018051;28;20687;-83
2023/05/06 12:16:57;;;;;;;;;;;17.10;99.90;;;;;;5019003;28;19928;-82
2023/05/06 12:19:23;;;;;;;;;;;17.10;99.90;;;;;;5014264;28;19995;-82
2023/05/06 12:21:51;;;;;;;;;;;17.00;99.90;;;;;;5001404;28;20494;-81
2023/05/06 12:24:25;;;;;;;;;;;17.00;99.90;;;;;;5017947;28;19929;-81
2023/05/06 12:26:52;;;;;;;;;;;17.10;99.90;;;;;;5014634;28;20040;-80
2023/05/06 12:29:18;;;;;;;;;;;17.20;99.90;;;;;;5039199;28;20364;-80
2023/05/06 12:31:48;;;;;;;;;;;17.20;99.90;;;;;;5019062;28;20119;-82
2023/05/06 12:34:16;;;;;;;;;;;17.50;99.90;;;;;;5012402;28;19925;-81
2023/05/06 12:36:46;;;;;;;;;;;17.80;99.90;;;;;;5031038;28;19926;-80
2023/05/06 12:39:13;;;;;;;;;;;18.10;99.90;;;;;;5014097;28;19925;-81
2023/05/06 12:41:41;;;;;;;;;;;18.30;99.90;;;;;;5018797;28;20018;-82
2023/05/06 12:44:27;;;;;;;;;;;18.40;99.90;;;;;;5016105;28;19925;-81
2023/05/06 12:46:53;;;;;;;;;;;18.50;99.90;;;;;;5019191;28;19952;-81
2023/05/06 12:49:23;;;;;;;;;;;18.50;99.90;;;;;;5017240;28;20281;-82
2023/05/06 12:52:05;;;;;;;;;;;18.60;99.90;;;;;;5033736;28;19924;-81
2023/05/06 12:54:32;;;;;;;;;;;18.70;99.90;;;;;;5019013;28;19983;-81
2023/05/06 12:56:59;;;;;;;;;;;18.80;99.90;;;;;;5033182;28;19958;-81
2023/05/06 12:59:26;;;;;;;;;;;18.80;99.90;;;;;;5014011;28;20466;-81
2023/05/06 13:01:53;;;;;;;;;;;18.70;99.90;;;;;;5016831;28;20063;-80
2023/05/06 13:04:20;;;;;;;;;;;18.40;99.90;;;;;;5015819;28;19928;-83
2023/05/06 13:06:47;;;;;;;;;;;18.20;99.90;;;;;;5016767;28;19925;-82
2023/05/06 13:09:14;;;;;;;;;;;17.80;99.90;;;;;;5024966;28;19925;-82
2023/05/06 13:11:41;;;;;;;;;;;17.60;99.90;;;;;;5023350;28;20495;-81
2023/05/06 13:14:08;;;;;;;;;;;17.40;99.90;;;;;;5016281;28;20375;-83
2023/05/06 13:16:35;;;;;;;;;;;17.40;99.90;;;;;;5016253;28;19928;-82
2023/05/06 13:19:02;;;;;;;;;;;17.40;99.90;;;;;;5016714;28;19928;-82
2023/05/06 13:21:28;;;;;;;;;;;17.20;99.90;;;;;;5045696;28;19929;-81
2023/05/06 13:23:55;;;;;;;;;;;17.10;99.90;;;;;;5017927;28;19925;-82
2023/05/06 13:26:22;;;;;;;;;;;17.00;99.90;;;;;;5016395;28;20019;-82
2023/05/06 13:28:49;;;;;;;;;;;16.90;99.90;;;;;;5013830;28;19937;-82
2023/05/06 13:31:15;;;;;;;;;;;16.70;99.90;;;;;;5017129;28;19928;-82
2023/05/06 13:33:42;;;;;;;;;;;16.70;99.90;;;;;;5016846;28;19979;-83
2023/05/06 13:36:09;;;;;;;;;;;16.70;99.90;;;;;;5016452;28;20024;-80
2023/05/06 13:38:36;;;;;;;;;;;16.80;99.90;;;;;;5015579;28;19929;-83
2023/05/06 13:41:03;;;;;;;;;;;17.00;99.90;;;;;;5032281;28;19929;-83
2023/05/06 13:43:29;;;;;;;;;;;17.30;99.90;;;;;;5032021;28;20327;-84
2023/05/06 13:45:56;;;;;;;;;;;17.50;99.90;;;;;;5017475;28;19932;-84
2023/05/06 13:48:23;;;;;;;;;;;17.50;99.90;;;;;;5031778;28;20423;-83
2023/05/06 13:50:50;;;;;;;;;;;17.40;99.90;;;;;;5016987;28;19925;-82
2023/05/06 13:53:17;;;;;;;;;;;17.30;99.90;;;;;;5011994;28;20128;-82
2023/05/06 13:55:45;;;;;;;;;;;17.30;99.90;;;;;;5016876;28;19925;-82
2023/05/06 13:58:12;;;;;;;;;;;17.20;99.90;;;;;;5013732;28;20250;-81
2023/05/06 14:00:41;;;;;;;;;;;17.00;99.90;;;;;;5012182;28;19925;-82
2023/05/06 14:03:08;;;;;;;;;;;16.90;99.90;;;;;;5012596;28;20046;-81
2023/05/06 14:05:35;;;;;;;;;;;16.70;99.90;;;;;;5013035;28;20697;-81
2023/05/06 14:08:02;;;;;;;;;;;16.70;99.90;;;;;;5016670;28;19925;-80
2023/05/06 14:10:29;;;;;;;;;;;16.70;99.90;;;;;;5015483;28;19921;-78
2023/05/06 14:12:55;;;;;;;;;;;16.60;99.90;;;;;;4997294;28;19987;-78
2023/05/06 14:15:22;;;;;;;;;;;16.50;99.90;;;;;;5022100;28;20023;-78
2023/05/06 14:17:49;;;;;;;;;;;16.40;99.90;;;;;;5014905;28;19944;-79
2023/05/06 14:20:16;;;;;;;;;;;16.30;99.90;;;;;;5011071;28;20020;-78